sensor_id;sensor_type;location;lat;lon;timestamp;pressure;altitude;pressure_sealevel;temperature;humidity
50933;BME280;36921;49.006;9.292;2023-06-10T00:01:30;98329.13;;;19.55;100.00
50933;BME280;36921;49.006;9.292;2023-06-10T00:03:56;98324.13;;;19.46;100.00
50933;BME280;36921;49.006;9.292;2023-06-10T00:06:21;98321.41;;;19.36;100.00
50933;BME280;36921;49.006;9.292;2023-06-10T00:08:49;98323.31;;;19.41;100.00
50933;BME280;36921;49.006;9.292;2023-06-10T00:11:15;98326.88;;;19.31;100.00
50933;BME280;36921;49.006;9.292;2023-06-10T00:13:40;98308.22;;;19.13;100.00
50933;BME280;36921;49.006;9.292;2023-06-10T00:16:06;98305.44;;;19.02;100.00
50933;BME280;36921;49.006;9.292;2023-06-10T00:18:31;98327.38;;;19.08;100.00
50933;BME280;36921;49.006;9.292;2023-06-10T00:20:57;98335.31;;;19.09;100.00
50933;BME280;36921;49.006;9.292;2023-06-10T00:23:28;98327.91;;;18.99;100.00
50933;BME280;36921;49.006;9.292;2023-06-10T00:25:57;98325.69;;;18.96;100.00
50933;BME280;36921;49.006;9.292;2023-06-10T00:28:22;98323.47;;;18.83;100.00
50933;BME280;36921;49.006;9.292;2023-06-10T00:30:47;98319.00;;;18.67;100.00
50933;BME280;36921;49.006;9.292;2023-06-10T00:33:13;98326.06;;;18.52;100.00
50933;BME280;36921;49.006;9.292;2023-06-10T00:35:38;98336.09;;;18.31;100.00
50933;BME280;36921;49.006;9.292;2023-06-10T00:38:03;98346.09;;;18.15;100.00
50933;BME280;36921;49.006;9.292;2023-06-10T00:40:29;98329.00;;;17.93;100.00
50933;BME280;36921;49.006;9.292;2023-06-10T00:42:54;98333.69;;;17.98;100.00
50933;BME280;36921;49.006;9.292;2023-06-10T00:45:19;98341.09;;;17.70;100.00
50933;BME280;36921;49.006;9.292;2023-06-10T00:47:45;98322.59;;;17.50;100.00
50933;BME280;36921;49.006;9.292;2023-06-10T00:50:10;98332.31;;;17.36;100.00
50933;BME280;36921;49.006;9.292;2023-06-10T00:52:35;98326.28;;;17.06;100.00
50933;BME280;36921;49.006;9.292;2023-06-10T00:55:01;98318.44;;;16.88;100.00
50933;BME280;36921;49.006;9.292;2023-06-10T00:57:26;98337.75;;;16.81;100.00
50933;BME280;36921;49.006;9.292;2023-06-10T00:59:54;98324.31;;;16.58;100.00
50933;BME280;36921;49.006;9.292;2023-06-10T01:02:19;98333.59;;;16.57;100.00
50933;BME280;36921;49.006;9.292;2023-06-10T01:04:44;98338.16;;;16.51;100.00
50933;BME280;36921;49.006;9.292;2023-06-10T01:07:18;98348.69;;;16.42;100.00
50933;BME280;36921;49.006;9.292;2023-06-10T01:10:00;98336.06;;;16.36;100.00
50933;BME280;36921;49.006;9.292;2023-06-10T01:14:55;98359.44;;;16.49;100.00
50933;BME280;36921;49.006;9.292;2023-06-10T01:17:20;98344.25;;;16.36;100.00
50933;BME280;36921;49.006;9.292;2023-06-10T01:19:53;98343.84;;;16.28;100.00
50933;BME280;36921;49.006;9.292;2023-06-10T01:22:20;98324.41;;;16.24;100.00
50933;BME280;36921;49.006;9.292;2023-06-10T01:24:47;98340.91;;;16.12;100.00
50933;BME280;36921;49.006;9.292;2023-06-10T01:27:17;98349.25;;;16.06;100.00
50933;BME280;36921;49.006;9.292;2023-06-10T01:29:46;98359.03;;;16.02;100.00
50933;BME280;36921;49.006;9.292;2023-06-10T01:32:22;98358.53;;;16.05;100.00
50933;BME280;36921;49.006;9.292;2023-06-10T01:34:48;98345.16;;;15.86;100.00
50933;BME280;36921;49.006;9.292;2023-06-10T01:37:18;98351.44;;;15.87;100.00
50933;BME280;36921;49.006;9.292;2023-06-10T01:39:45;98349.94;;;15.79;100.00
50933;BME280;36921;49.006;9.292;2023-06-10T01:42:12;98362.59;;;15.85;100.00
50933;BME280;36921;49.006;9.292;2023-06-10T01:44:39;98362.19;;;15.93;100.00
50933;BME280;36921;49.006;9.292;2023-06-10T01:47:04;98356.97;;;15.75;100.00
50933;BME280;36921;49.006;9.292;2023-06-10T01:49:30;98354.91;;;15.82;100.00
50933;BME280;36921;49.006;9.292;2023-06-10T01:51:55;98352.50;;;16.03;100.00
50933;BME280;36921;49.006;9.292;2023-06-10T01:54:20;98342.50;;;15.91;100.00
50933;BME280;36921;49.006;9.292;2023-06-10T01:56:45;98357.34;;;16.00;100.00
50933;BME280;36921;49.006;9.292;2023-06-10T01:59:11;98346.44;;;16.00;100.00
50933;BME280;36921;49.006;9.292;2023-06-10T02:01:36;98333.22;;;15.92;100.00
50933;BME280;36921;49.006;9.292;2023-06-10T02:04:01;98337.72;;;15.98;100.00
50933;BME280;36921;49.006;9.292;2023-06-10T02:06:27;98347.47;;;15.94;100.00
50933;BME280;36921;49.006;9.292;2023-06-10T02:08:52;98362.00;;;16.00;100.00
50933;BME280;36921;49.006;9.292;2023-06-10T02:11:17;98345.81;;;15.93;100.00
50933;BME280;36921;49.006;9.292;2023-06-10T02:13:42;98341.69;;;15.91;100.00
50933;BME280;36921;49.006;9.292;2023-06-10T02:16:08;98359.97;;;15.90;100.00
50933;BME280;36921;49.006;9.292;2023-06-10T02:18:34;98364.00;;;15.88;100.00
50933;BME280;36921;49.006;9.292;2023-06-10T02:20:59;98336.47;;;15.72;100.00
50933;BME280;36921;49.006;9.292;2023-06-10T02:23:25;98350.44;;;15.76;100.00
50933;BME280;36921;49.006;9.292;2023-06-10T02:25:50;98354.06;;;15.82;100.00
50933;BME280;36921;49.006;9.292;2023-06-10T02:28:15;98353.34;;;15.86;100.00
50933;BME280;36921;49.006;9.292;2023-06-10T02:30:41;98324.28;;;15.63;100.00
50933;BME280;36921;49.006;9.292;2023-06-10T02:33:07;98361.91;;;15.95;100.00
50933;BME280;36921;49.006;9.292;2023-06-10T02:35:36;98351.69;;;15.85;100.00
50933;BME280;36921;49.006;9.292;2023-06-10T02:38:01;98360.84;;;15.96;100.00
50933;BME280;36921;49.006;9.292;2023-06-10T02:40:26;98339.28;;;15.94;100.00
50933;BME280;36921;49.006;9.292;2023-06-10T02:42:52;98366.56;;;16.11;100.00
50933;BME280;36921;49.006;9.292;2023-06-10T02:45:17;98350.94;;;16.07;100.00
50933;BME280;36921;49.006;9.292;2023-06-10T02:47:42;98369.03;;;16.13;100.00
50933;BME280;36921;49.006;9.292;2023-06-10T02:50:08;98375.81;;;16.10;100.00
50933;BME280;36921;49.006;9.292;2023-06-10T02:52:33;98363.31;;;15.97;100.00
50933;BME280;36921;49.006;9.292;2023-06-10T02:54:58;98373.47;;;16.19;100.00
50933;BME280;36921;49.006;9.292;2023-06-10T02:57:24;98390.44;;;16.21;100.00
50933;BME280;36921;49.006;9.292;2023-06-10T02:59:49;98392.03;;;16.17;100.00
50933;BME280;36921;49.006;9.292;2023-06-10T03:02:14;98379.28;;;16.06;100.00
50933;BME280;36921;49.006;9.292;2023-06-10T03:04:40;98393.34;;;16.14;100.00
50933;BME280;36921;49.006;9.292;2023-06-10T03:07:06;98380.50;;;15.98;100.00
50933;BME280;36921;49.006;9.292;2023-06-10T03:09:32;98391.94;;;15.95;100.00
50933;BME280;36921;49.006;9.292;2023-06-10T03:11:57;98385.72;;;15.99;100.00
50933;BME280;36921;49.006;9.292;2023-06-10T03:14:23;98389.19;;;15.95;100.00
50933;BME280;36921;49.006;9.292;2023-06-10T03:16:49;98385.91;;;15.93;100.00
50933;BME280;36921;49.006;9.292;2023-06-10T03:19:15;98388.88;;;15.91;100.00
50933;BME280;36921;49.006;9.292;2023-06-10T03:21:43;98407.25;;;15.96;100.00
50933;BME280;36921;49.006;9.292;2023-06-10T03:24:09;98410.22;;;15.77;100.00
50933;BME280;36921;49.006;9.292;2023-06-10T03:26:35;98410.72;;;15.46;100.00
50933;BME280;36921;49.006;9.292;2023-06-10T03:29:01;98408.31;;;15.21;100.00
50933;BME280;36921;49.006;9.292;2023-06-10T03:31:26;98409.59;;;15.01;100.00
50933;BME280;36921;49.006;9.292;2023-06-10T03:33:51;98401.31;;;14.84;100.00
50933;BME280;36921;49.006;9.292;2023-06-10T03:36:16;98419.09;;;14.87;100.00
50933;BME280;36921;49.006;9.292;2023-06-10T03:38:42;98410.09;;;14.75;100.00
50933;BME280;36921;49.006;9.292;2023-06-10T03:41:08;98419.56;;;14.84;100.00
50933;BME280;36921;49.006;9.292;2023-06-10T03:43:33;98418.53;;;14.73;100.00
50933;BME280;36921;49.006;9.292;2023-06-10T03:45:59;98425.34;;;14.87;100.00
50933;BME280;36921;49.006;9.292;2023-06-10T03:48:24;98426.28;;;14.93;100.00
50933;BME280;36921;49.006;9.292;2023-06-10T03:50:49;98421.97;;;15.09;100.00
50933;BME280;36921;49.006;9.292;2023-06-10T03:53:16;98414.06;;;15.07;100.00
50933;BME280;36921;49.006;9.292;2023-06-10T03:55:41;98428.94;;;15.17;100.00
50933;BME280;36921;49.006;9.292;2023-06-10T03:58:07;98424.09;;;15.19;100.00
50933;BME280;36921;49.006;9.292;2023-06-10T04:00:32;98423.94;;;15.25;100.00
50933;BME280;36921;49.006;9.292;2023-06-10T04:03:08;98410.84;;;15.10;100.00
50933;BME280;36921;49.006;9.292;2023-06-10T04:05:34;98422.19;;;15.19;100.00
50933;BME280;36921;49.006;9.292;2023-06-10T04:07:59;98415.38;;;15.05;100.00
50933;BME280;36921;49.006;9.292;2023-06-10T04:10:26;98411.63;;;14.94;100.00
50933;BME280;36921;49.006;9.292;2023-06-10T04:12:52;98414.81;;;14.91;100.00
50933;BME280;36921;49.006;9.292;2023-06-10T04:15:17;98432.25;;;15.19;100.00
50933;BME280;36921;49.006;9.292;2023-06-10T04:17:42;98425.50;;;15.21;100.00
50933;BME280;36921;49.006;9.292;2023-06-10T04:20:08;98423.38;;;15.23;100.00
50933;BME280;36921;49.006;9.292;2023-06-10T04:22:33;98420.41;;;15.25;100.00
50933;BME280;36921;49.006;9.292;2023-06-10T04:24:59;98436.59;;;15.31;100.00
50933;BME280;36921;49.006;9.292;2023-06-10T04:27:24;98448.69;;;15.36;100.00
50933;BME280;36921;49.006;9.292;2023-06-10T04:29:49;98445.22;;;15.40;100.00
50933;BME280;36921;49.006;9.292;2023-06-10T04:32:15;98431.47;;;15.35;100.00
50933;BME280;36921;49.006;9.292;2023-06-10T04:34:40;98437.41;;;15.32;100.00
50933;BME280;36921;49.006;9.292;2023-06-10T04:37:05;98435.97;;;15.41;100.00
50933;BME280;36921;49.006;9.292;2023-06-10T04:39:31;98426.56;;;15.49;100.00
50933;BME280;36921;49.006;9.292;2023-06-10T04:41:57;98444.03;;;15.65;100.00
50933;BME280;36921;49.006;9.292;2023-06-10T04:44:22;98428.44;;;15.77;100.00
50933;BME280;36921;49.006;9.292;2023-06-10T04:46:48;98443.84;;;16.00;100.00
50933;BME280;36921;49.006;9.292;2023-06-10T04:49:13;98430.88;;;16.07;100.00
50933;BME280;36921;49.006;9.292;2023-06-10T04:51:41;98438.16;;;16.18;100.00
50933;BME280;36921;49.006;9.292;2023-06-10T04:54:07;98448.25;;;16.35;100.00
50933;BME280;36921;49.006;9.292;2023-06-10T04:56:32;98436.97;;;16.48;100.00
50933;BME280;36921;49.006;9.292;2023-06-10T04:58:57;98422.31;;;16.54;100.00
50933;BME280;36921;49.006;9.292;2023-06-10T05:01:23;98458.13;;;16.75;100.00
50933;BME280;36921;49.006;9.292;2023-06-10T05:03:48;98452.50;;;16.81;100.00
50933;BME280;36921;49.006;9.292;2023-06-10T05:06:14;98448.63;;;16.99;100.00
50933;BME280;36921;49.006;9.292;2023-06-10T05:08:39;98444.06;;;17.27;100.00
50933;BME280;36921;49.006;9.292;2023-06-10T05:11:04;98432.91;;;17.34;100.00
50933;BME280;36921;49.006;9.292;2023-06-10T05:13:30;98449.91;;;17.63;100.00
50933;BME280;36921;49.006;9.292;2023-06-10T05:15:55;98445.41;;;17.79;100.00
50933;BME280;36921;49.006;9.292;2023-06-10T05:18:20;98458.28;;;18.05;100.00
50933;BME280;36921;49.006;9.292;2023-06-10T05:20:46;98456.72;;;18.14;100.00
50933;BME280;36921;49.006;9.292;2023-06-10T05:23:11;98462.59;;;18.33;100.00
50933;BME280;36921;49.006;9.292;2023-06-10T05:25:37;98458.59;;;18.46;100.00
50933;BME280;36921;49.006;9.292;2023-06-10T05:28:02;98443.38;;;18.60;100.00
50933;BME280;36921;49.006;9.292;2023-06-10T05:30:27;98454.69;;;18.74;100.00
50933;BME280;36921;49.006;9.292;2023-06-10T05:32:53;98456.94;;;18.82;100.00
50933;BME280;36921;49.006;9.292;2023-06-10T05:35:18;98451.84;;;19.07;100.00
50933;BME280;36921;49.006;9.292;2023-06-10T05:37:44;98439.28;;;19.16;100.00
50933;BME280;36921;49.006;9.292;2023-06-10T05:40:10;98450.63;;;19.45;100.00
50933;BME280;36921;49.006;9.292;2023-06-10T05:42:35;98455.38;;;19.65;100.00
50933;BME280;36921;49.006;9.292;2023-06-10T05:45:01;98451.00;;;19.74;100.00
50933;BME280;36921;49.006;9.292;2023-06-10T05:47:27;98447.16;;;19.70;100.00
50933;BME280;36921;49.006;9.292;2023-06-10T05:49:52;98465.84;;;19.88;100.00
50933;BME280;36921;49.006;9.292;2023-06-10T05:52:18;98463.91;;;19.68;100.00
50933;BME280;36921;49.006;9.292;2023-06-10T05:54:43;98461.91;;;19.54;100.00
50933;BME280;36921;49.006;9.292;2023-06-10T05:57:08;98462.25;;;19.83;100.00
50933;BME280;36921;49.006;9.292;2023-06-10T05:59:34;98460.69;;;20.28;100.00
50933;BME280;36921;49.006;9.292;2023-06-10T06:02:00;98461.22;;;20.66;100.00
50933;BME280;36921;49.006;9.292;2023-06-10T06:04:25;98457.00;;;21.04;100.00
50933;BME280;36921;49.006;9.292;2023-06-10T06:06:51;98447.22;;;21.32;100.00
50933;BME280;36921;49.006;9.292;2023-06-10T06:09:16;98455.09;;;21.64;100.00
50933;BME280;36921;49.006;9.292;2023-06-10T06:11:41;98464.53;;;21.93;100.00
50933;BME280;36921;49.006;9.292;2023-06-10T06:14:06;98458.38;;;22.06;100.00
50933;BME280;36921;49.006;9.292;2023-06-10T06:16:32;98451.31;;;22.34;100.00
50933;BME280;36921;49.006;9.292;2023-06-10T06:18:58;98473.22;;;22.79;100.00
50933;BME280;36921;49.006;9.292;2023-06-10T06:21:23;98458.28;;;22.85;100.00
50933;BME280;36921;49.006;9.292;2023-06-10T06:23:48;98472.22;;;23.23;100.00
50933;BME280;36921;49.006;9.292;2023-06-10T06:26:14;98474.19;;;23.41;100.00
50933;BME280;36921;49.006;9.292;2023-06-10T06:28:39;98454.88;;;23.60;100.00
50933;BME280;36921;49.006;9.292;2023-06-10T06:31:05;98471.41;;;23.84;100.00
50933;BME280;36921;49.006;9.292;2023-06-10T06:33:30;98469.00;;;24.15;100.00
50933;BME280;36921;49.006;9.292;2023-06-10T06:35:55;98468.19;;;24.15;100.00
50933;BME280;36921;49.006;9.292;2023-06-10T06:38:21;98460.19;;;24.32;100.00
50933;BME280;36921;49.006;9.292;2023-06-10T06:40:46;98469.34;;;24.65;100.00
50933;BME280;36921;49.006;9.292;2023-06-10T06:43:11;98456.34;;;24.80;100.00
50933;BME280;36921;49.006;9.292;2023-06-10T06:45:36;98466.22;;;25.27;100.00
50933;BME280;36921;49.006;9.292;2023-06-10T06:48:02;98456.44;;;25.71;100.00
50933;BME280;36921;49.006;9.292;2023-06-10T06:50:27;98476.69;;;26.76;100.00
50933;BME280;36921;49.006;9.292;2023-06-10T06:52:53;98470.22;;;29.20;91.59
50933;BME280;36921;49.006;9.292;2023-06-10T06:55:18;98457.31;;;31.66;69.14
50933;BME280;36921;49.006;9.292;2023-06-10T06:57:43;98448.56;;;33.56;60.84
50933;BME280;36921;49.006;9.292;2023-06-10T07:00:09;98467.06;;;35.59;55.35
50933;BME280;36921;49.006;9.292;2023-06-10T07:02:35;98465.69;;;36.32;49.37
50933;BME280;36921;49.006;9.292;2023-06-10T07:05:01;98456.00;;;35.73;47.27
50933;BME280;36921;49.006;9.292;2023-06-10T07:07:26;98458.66;;;36.87;46.17
50933;BME280;36921;49.006;9.292;2023-06-10T07:09:52;98459.50;;;37.87;43.54
50933;BME280;36921;49.006;9.292;2023-06-10T07:12:17;98458.69;;;38.70;42.23
50933;BME280;36921;49.006;9.292;2023-06-10T07:14:43;98476.59;;;39.39;40.21
50933;BME280;36921;49.006;9.292;2023-06-10T07:17:09;98459.81;;;37.78;40.25
50933;BME280;36921;49.006;9.292;2023-06-10T07:19:34;98454.94;;;36.11;42.02
50933;BME280;36921;49.006;9.292;2023-06-10T07:21:59;98470.13;;;36.67;41.56
50933;BME280;36921;49.006;9.292;2023-06-10T07:24:25;98461.03;;;38.54;40.49
50933;BME280;36921;49.006;9.292;2023-06-10T07:26:50;98467.16;;;38.74;40.25
50933;BME280;36921;49.006;9.292;2023-06-10T07:29:15;98478.78;;;37.26;41.23
50933;BME280;36921;49.006;9.292;2023-06-10T07:31:41;98459.88;;;37.85;40.42
50933;BME280;36921;49.006;9.292;2023-06-10T07:34:06;98465.13;;;37.32;40.76
50933;BME280;36921;49.006;9.292;2023-06-10T07:36:32;98451.97;;;38.09;39.25
50933;BME280;36921;49.006;9.292;2023-06-10T07:38:57;98457.56;;;37.98;39.40
50933;BME280;36921;49.006;9.292;2023-06-10T07:41:23;98460.94;;;37.11;39.00
50933;BME280;36921;49.006;9.292;2023-06-10T07:43:51;98457.19;;;37.00;39.25
50933;BME280;36921;49.006;9.292;2023-06-10T07:46:22;98465.91;;;38.57;36.91
50933;BME280;36921;49.006;9.292;2023-06-10T07:48:48;98453.38;;;37.78;39.29
50933;BME280;36921;49.006;9.292;2023-06-10T07:51:15;98444.91;;;38.72;37.31
50933;BME280;36921;49.006;9.292;2023-06-10T07:53:40;98455.50;;;39.11;36.28
50933;BME280;36921;49.006;9.292;2023-06-10T07:56:06;98457.41;;;41.03;35.14
50933;BME280;36921;49.006;9.292;2023-06-10T07:58:31;98431.00;;;40.46;34.96
50933;BME280;36921;49.006;9.292;2023-06-10T08:00:56;98452.09;;;40.35;35.93
50933;BME280;36921;49.006;9.292;2023-06-10T08:03:21;98441.56;;;40.39;34.24
50933;BME280;36921;49.006;9.292;2023-06-10T08:05:47;98441.41;;;40.64;34.10
50933;BME280;36921;49.006;9.292;2023-06-10T08:08:12;98458.13;;;40.47;34.60
50933;BME280;36921;49.006;9.292;2023-06-10T08:10:38;98441.75;;;41.36;33.89
50933;BME280;36921;49.006;9.292;2023-06-10T08:13:03;98458.09;;;41.70;33.85
50933;BME280;36921;49.006;9.292;2023-06-10T08:15:29;98461.50;;;41.95;33.25
50933;BME280;36921;49.006;9.292;2023-06-10T08:17:54;98428.84;;;41.28;33.64
50933;BME280;36921;49.006;9.292;2023-06-10T08:20:19;98434.81;;;42.20;32.47
50933;BME280;36921;49.006;9.292;2023-06-10T08:22:44;98436.44;;;39.98;33.89
50933;BME280;36921;49.006;9.292;2023-06-10T08:25:10;98442.59;;;41.29;32.88
50933;BME280;36921;49.006;9.292;2023-06-10T08:27:35;98436.94;;;39.57;34.36
50933;BME280;36921;49.006;9.292;2023-06-10T08:30:00;98432.47;;;39.13;34.39
50933;BME280;36921;49.006;9.292;2023-06-10T08:32:26;98437.72;;;39.61;34.59
50933;BME280;36921;49.006;9.292;2023-06-10T08:34:51;98426.00;;;39.62;34.35
50933;BME280;36921;49.006;9.292;2023-06-10T08:37:16;98438.66;;;41.20;33.32
50933;BME280;36921;49.006;9.292;2023-06-10T08:39:42;98425.16;;;41.31;33.53
50933;BME280;36921;49.006;9.292;2023-06-10T08:42:22;98437.31;;;39.84;33.47
50933;BME280;36921;49.006;9.292;2023-06-10T08:44:55;98429.53;;;40.02;33.58
50933;BME280;36921;49.006;9.292;2023-06-10T08:47:23;98432.34;;;42.22;32.01
50933;BME280;36921;49.006;9.292;2023-06-10T08:49:48;98438.28;;;41.63;31.93
50933;BME280;36921;49.006;9.292;2023-06-10T08:52:16;98442.78;;;42.32;32.72
50933;BME280;36921;49.006;9.292;2023-06-10T08:54:49;98436.25;;;43.44;30.42
50933;BME280;36921;49.006;9.292;2023-06-10T08:57:18;98432.34;;;40.13;32.37
50933;BME280;36921;49.006;9.292;2023-06-10T08:59:46;98436.03;;;37.76;35.57
50933;BME280;36921;49.006;9.292;2023-06-10T09:02:11;98435.47;;;36.63;37.02
50933;BME280;36921;49.006;9.292;2023-06-10T09:04:38;98421.31;;;37.00;37.69
50933;BME280;36921;49.006;9.292;2023-06-10T09:07:04;98426.13;;;35.65;38.15
50933;BME280;36921;49.006;9.292;2023-06-10T09:09:30;98425.63;;;33.03;41.78
50933;BME280;36921;49.006;9.292;2023-06-10T09:11:58;98428.84;;;32.89;42.85
50933;BME280;36921;49.006;9.292;2023-06-10T09:14:23;98417.31;;;35.66;40.31
50933;BME280;36921;49.006;9.292;2023-06-10T09:16:49;98423.91;;;38.59;36.65
50933;BME280;36921;49.006;9.292;2023-06-10T09:19:16;98428.38;;;37.80;36.81
50933;BME280;36921;49.006;9.292;2023-06-10T09:21:41;98416.91;;;37.51;36.70
50933;BME280;36921;49.006;9.292;2023-06-10T09:24:07;98429.47;;;40.20;34.07
50933;BME280;36921;49.006;9.292;2023-06-10T09:26:32;98415.34;;;40.06;33.02
50933;BME280;36921;49.006;9.292;2023-06-10T09:29:03;98398.25;;;40.97;33.08
50933;BME280;36921;49.006;9.292;2023-06-10T09:31:29;98404.38;;;41.41;32.16
50933;BME280;36921;49.006;9.292;2023-06-10T09:33:54;98415.75;;;42.17;31.13
50933;BME280;36921;49.006;9.292;2023-06-10T09:36:23;98429.31;;;42.40;31.36
50933;BME280;36921;49.006;9.292;2023-06-10T09:38:49;98425.69;;;43.21;30.38
50933;BME280;36921;49.006;9.292;2023-06-10T09:41:15;98415.75;;;43.96;29.96
50933;BME280;36921;49.006;9.292;2023-06-10T09:43:45;98414.78;;;43.63;29.70
50933;BME280;36921;49.006;9.292;2023-06-10T09:46:18;98421.00;;;42.53;29.91
50933;BME280;36921;49.006;9.292;2023-06-10T09:48:45;98422.97;;;42.25;30.51
50933;BME280;36921;49.006;9.292;2023-06-10T09:51:12;98410.91;;;41.38;30.93
50933;BME280;36921;49.006;9.292;2023-06-10T09:53:38;98384.31;;;42.00;30.17
50933;BME280;36921;49.006;9.292;2023-06-10T09:56:04;98386.72;;;43.14;29.84
50933;BME280;36921;49.006;9.292;2023-06-10T09:58:53;98403.16;;;43.97;29.25
50933;BME280;36921;49.006;9.292;2023-06-10T10:01:18;98409.88;;;43.83;28.26
50933;BME280;36921;49.006;9.292;2023-06-10T10:03:48;98409.53;;;41.91;29.02
50933;BME280;36921;49.006;9.292;2023-06-10T10:06:18;98415.22;;;41.05;29.71
50933;BME280;36921;49.006;9.292;2023-06-10T10:08:49;98403.31;;;41.69;30.58
50933;BME280;36921;49.006;9.292;2023-06-10T10:11:22;98402.69;;;41.02;30.10
50933;BME280;36921;49.006;9.292;2023-06-10T10:13:49;98392.50;;;41.08;30.63
50933;BME280;36921;49.006;9.292;2023-06-10T10:16:17;98385.19;;;41.14;30.94
50933;BME280;36921;49.006;9.292;2023-06-10T10:18:59;98389.50;;;40.74;31.31
50933;BME280;36921;49.006;9.292;2023-06-10T10:21:32;98381.94;;;41.95;29.88
50933;BME280;36921;49.006;9.292;2023-06-10T10:24:16;98396.06;;;43.38;28.91
50933;BME280;36921;49.006;9.292;2023-06-10T10:26:43;98394.63;;;40.30;31.34
50933;BME280;36921;49.006;9.292;2023-06-10T10:31:51;98383.13;;;39.57;31.61
50933;BME280;36921;49.006;9.292;2023-06-10T10:34:24;98385.03;;;41.29;30.67
50933;BME280;36921;49.006;9.292;2023-06-10T10:36:54;98392.41;;;43.14;29.43
50933;BME280;36921;49.006;9.292;2023-06-10T10:39:19;98364.19;;;39.36;33.07
50933;BME280;36921;49.006;9.292;2023-06-10T10:41:46;98377.09;;;39.01;33.14
50933;BME280;36921;49.006;9.292;2023-06-10T10:44:12;98375.00;;;40.65;31.46
50933;BME280;36921;49.006;9.292;2023-06-10T10:46:45;98368.91;;;38.42;32.95
50933;BME280;36921;49.006;9.292;2023-06-10T10:49:14;98370.22;;;35.93;35.30
50933;BME280;36921;49.006;9.292;2023-06-10T10:51:56;98375.00;;;34.21;36.81
50933;BME280;36921;49.006;9.292;2023-06-10T10:54:34;98381.22;;;34.30;37.49
50933;BME280;36921;49.006;9.292;2023-06-10T10:57:19;98378.03;;;37.96;34.18
50933;BME280;36921;49.006;9.292;2023-06-10T11:00:06;98364.19;;;39.07;32.49
50933;BME280;36921;49.006;9.292;2023-06-10T11:05:00;98364.88;;;39.76;30.85
50933;BME280;36921;49.006;9.292;2023-06-10T11:07:25;98348.28;;;41.14;30.15
50933;BME280;36921;49.006;9.292;2023-06-10T11:10:15;98347.78;;;41.23;30.45
50933;BME280;36921;49.006;9.292;2023-06-10T11:12:53;98357.94;;;42.85;29.00
50933;BME280;36921;49.006;9.292;2023-06-10T11:15:22;98359.75;;;44.26;28.94
50933;BME280;36921;49.006;9.292;2023-06-10T11:26:14;98360.50;;;43.26;29.36
50933;BME280;36921;49.006;9.292;2023-06-10T11:33:53;98358.38;;;39.82;32.48
50933;BME280;36921;49.006;9.292;2023-06-10T11:36:19;98347.81;;;37.97;34.22
50933;BME280;36921;49.006;9.292;2023-06-10T11:38:44;98355.91;;;38.09;34.38
50933;BME280;36921;49.006;9.292;2023-06-10T11:41:11;98344.97;;;41.61;31.60
50933;BME280;36921;49.006;9.292;2023-06-10T11:43:40;98346.84;;;42.40;29.81
50933;BME280;36921;49.006;9.292;2023-06-10T11:46:08;98349.31;;;40.20;31.72
50933;BME280;36921;49.006;9.292;2023-06-10T11:48:33;98336.59;;;37.41;34.37
50933;BME280;36921;49.006;9.292;2023-06-10T11:50:59;98342.59;;;37.36;33.96
50933;BME280;36921;49.006;9.292;2023-06-10T11:53:24;98338.19;;;37.35;34.59
50933;BME280;36921;49.006;9.292;2023-06-10T11:55:50;98341.13;;;38.62;32.87
50933;BME280;36921;49.006;9.292;2023-06-10T11:58:18;98336.69;;;38.57;33.19
50933;BME280;36921;49.006;9.292;2023-06-10T12:00:47;98341.31;;;37.89;33.42
50933;BME280;36921;49.006;9.292;2023-06-10T12:03:13;98332.13;;;39.64;31.23
50933;BME280;36921;49.006;9.292;2023-06-10T12:05:38;98331.84;;;42.05;29.75
50933;BME280;36921;49.006;9.292;2023-06-10T12:08:10;98338.72;;;43.12;29.32
50933;BME280;36921;49.006;9.292;2023-06-10T12:10:42;98330.53;;;43.42;28.12
50933;BME280;36921;49.006;9.292;2023-06-10T12:13:11;98330.81;;;43.67;27.89
50933;BME280;36921;49.006;9.292;2023-06-10T12:15:36;98332.63;;;42.90;26.66
50933;BME280;36921;49.006;9.292;2023-06-10T12:18:02;98330.50;;;42.71;27.15
50933;BME280;36921;49.006;9.292;2023-06-10T12:20:30;98325.63;;;43.62;27.61
50933;BME280;36921;49.006;9.292;2023-06-10T12:22:58;98326.84;;;44.57;27.42
50933;BME280;36921;49.006;9.292;2023-06-10T12:25:25;98316.66;;;45.05;26.71
50933;BME280;36921;49.006;9.292;2023-06-10T12:27:56;98315.97;;;44.69;26.67
50933;BME280;36921;49.006;9.292;2023-06-10T12:30:24;98319.09;;;43.65;26.92
50933;BME280;36921;49.006;9.292;2023-06-10T12:32:50;98322.75;;;44.58;27.02
50933;BME280;36921;49.006;9.292;2023-06-10T12:35:18;98302.44;;;42.19;27.25
50933;BME280;36921;49.006;9.292;2023-06-10T12:38:04;98325.34;;;39.43;29.67
50933;BME280;36921;49.006;9.292;2023-06-10T12:40:34;98309.19;;;39.22;30.05
50933;BME280;36921;49.006;9.292;2023-06-10T12:43:01;98317.84;;;41.15;29.33
50933;BME280;36921;49.006;9.292;2023-06-10T12:45:31;98316.69;;;42.15;28.86
50933;BME280;36921;49.006;9.292;2023-06-10T12:48:09;98318.22;;;41.58;28.07
50933;BME280;36921;49.006;9.292;2023-06-10T12:50:36;98316.00;;;38.32;30.47
50933;BME280;36921;49.006;9.292;2023-06-10T12:53:04;98309.59;;;36.40;31.90
50933;BME280;36921;49.006;9.292;2023-06-10T12:55:31;98327.34;;;36.45;33.04
50933;BME280;36921;49.006;9.292;2023-06-10T12:57:56;98308.78;;;39.06;31.95
50933;BME280;36921;49.006;9.292;2023-06-10T13:00:22;98307.34;;;39.97;28.83
50933;BME280;36921;49.006;9.292;2023-06-10T13:02:51;98323.22;;;40.50;28.80
50933;BME280;36921;49.006;9.292;2023-06-10T13:05:17;98312.41;;;41.31;27.59
50933;BME280;36921;49.006;9.292;2023-06-10T13:07:43;98299.59;;;42.19;27.74
50933;BME280;36921;49.006;9.292;2023-06-10T13:10:09;98307.09;;;40.92;29.26
50933;BME280;36921;49.006;9.292;2023-06-10T13:12:35;98309.63;;;38.92;30.13
50933;BME280;36921;49.006;9.292;2023-06-10T13:15:01;98296.66;;;39.09;30.24